createdAt,value
2022-11-16T00:02:09.759Z,17.48
2022-11-16T00:04:36.466Z,21.40
2022-11-16T00:07:06.852Z,16.33
2022-11-16T00:09:33.356Z,19.60
2022-11-16T00:12:03.607Z,19.08
2022-11-16T00:14:31.872Z,18.70
2022-11-16T00:16:59.381Z,16.00
2022-11-16T00:19:26.655Z,18.17
2022-11-16T00:21:53.868Z,19.85
2022-11-16T00:24:23.673Z,19.65
2022-11-16T00:26:51.487Z,19.40
2022-11-16T00:29:20.656Z,20.80
2022-11-16T00:31:47.587Z,18.52
2022-11-16T00:34:14.397Z,16.88
2022-11-16T00:36:40.868Z,18.77
2022-11-16T00:39:11.751Z,20.77
2022-11-16T00:41:38.270Z,19.88
2022-11-16T00:44:06.228Z,21.52
2022-11-16T00:46:32.927Z,23.23
2022-11-16T00:48:59.989Z,19.95
2022-11-16T00:51:26.695Z,22.83
2022-11-16T00:53:54.237Z,20.63
2022-11-16T00:56:20.794Z,22.45
2022-11-16T00:58:47.340Z,22.77
2022-11-16T01:01:14.464Z,18.40
2022-11-16T01:03:41.411Z,23.95
2022-11-16T01:06:10.439Z,25.20
2022-11-16T01:08:38.189Z,21.73
2022-11-16T01:11:24.308Z,25.63
2022-11-16T01:13:51.170Z,22.20
2022-11-16T01:16:20.777Z,23.70
2022-11-16T01:18:53.027Z,21.83
2022-11-16T01:21:19.991Z,19.08
2022-11-16T01:23:46.726Z,30.77
2022-11-16T01:26:13.304Z,21.10
2022-11-16T01:28:42.101Z,22.63
2022-11-16T01:31:09.579Z,23.67
2022-11-16T01:33:36.274Z,25.65
2022-11-16T01:36:03.022Z,25.25
2022-11-16T01:38:30.083Z,28.60
2022-11-16T01:40:56.907Z,25.80
2022-11-16T01:43:25.447Z,24.40
2022-11-16T01:45:52.463Z,24.45
2022-11-16T01:48:29.456Z,26.05
2022-11-16T01:50:57.507Z,31.75
2022-11-16T01:53:24.616Z,23.20
2022-11-16T01:55:51.447Z,29.63
2022-11-16T01:58:19.974Z,28.60
2022-11-16T02:00:49.044Z,29.88
2022-11-16T02:03:22.991Z,22.38
2022-11-16T02:06:11.193Z,23.52
2022-11-16T02:09:24.406Z,25.00
2022-11-16T02:12:09.676Z,23.65
2022-11-16T02:14:45.199Z,22.35
2022-11-16T02:17:33.168Z,27.00
2022-11-16T02:20:15.022Z,28.77
2022-11-16T02:23:06.376Z,29.30
2022-11-16T02:25:38.965Z,22.27
2022-11-16T02:28:17.113Z,24.73
2022-11-16T02:30:47.875Z,23.00
2022-11-16T02:33:17.660Z,26.63
2022-11-16T02:35:47.371Z,27.05
2022-11-16T02:38:31.195Z,25.90
2022-11-16T02:41:03.254Z,26.52
2022-11-16T02:43:34.510Z,24.30
2022-11-16T02:46:05.610Z,26.85
2022-11-16T02:51:06.446Z,28.83
2022-11-16T02:53:39.492Z,25.10
2022-11-16T02:56:06.319Z,23.40
2022-11-16T02:58:33.168Z,26.20
2022-11-16T03:01:01.258Z,23.42
2022-11-16T03:03:35.367Z,24.60
2022-11-16T03:06:08.719Z,23.40
2022-11-16T03:08:41.423Z,26.60
2022-11-16T03:11:27.489Z,22.48
2022-11-16T03:14:06.452Z,23.73
2022-11-16T03:16:43.028Z,25.50
2022-11-16T03:19:12.424Z,25.25
2022-11-16T03:22:02.148Z,22.50
2022-11-16T03:24:28.723Z,23.35
2022-11-16T03:27:07.482Z,21.85
2022-11-16T03:29:43.637Z,23.13
2022-11-16T03:32:19.299Z,19.92
2022-11-16T03:34:52.881Z,24.38
2022-11-16T03:37:21.477Z,25.38
2022-11-16T03:39:48.390Z,23.50
2022-11-16T03:42:15.158Z,23.95
2022-11-16T03:44:43.873Z,20.38
2022-11-16T03:47:10.708Z,18.45
2022-11-16T03:49:37.261Z,22.33
2022-11-16T03:52:03.958Z,17.02
2022-11-16T03:54:30.468Z,20.42
2022-11-16T03:56:57.030Z,17.83
2022-11-16T03:59:23.684Z,17.58
2022-11-16T04:01:50.185Z,20.35
2022-11-16T04:04:35.151Z,20.85
2022-11-16T04:07:21.890Z,19.65
2022-11-16T04:10:06.906Z,21.70
2022-11-16T04:12:51.998Z,21.27
2022-11-16T04:15:37.569Z,21.38
2022-11-16T04:18:22.954Z,21.45
2022-11-16T04:24:09.907Z,23.00
2022-11-16T04:26:58.583Z,18.60
2022-11-16T04:29:25.480Z,17.83
2022-11-16T04:32:10.637Z,19.73
2022-11-16T04:34:56.161Z,17.45
2022-11-16T04:37:41.309Z,24.67
2022-11-16T04:40:10.017Z,22.30
2022-11-16T04:42:36.477Z,26.80
2022-11-16T04:45:23.700Z,25.67
2022-11-16T04:47:50.729Z,26.70
2022-11-16T04:50:18.671Z,24.30
2022-11-16T04:52:45.535Z,21.55
2022-11-16T04:55:12.460Z,24.60
2022-11-16T04:57:39.628Z,29.35
2022-11-16T05:00:07.742Z,19.75
2022-11-16T05:02:34.354Z,20.83
2022-11-16T05:05:00.831Z,21.88
2022-11-16T05:07:28.426Z,24.92
2022-11-16T05:09:54.832Z,22.60
2022-11-16T05:12:23.967Z,26.52
2022-11-16T05:14:50.811Z,22.48
2022-11-16T05:17:18.261Z,20.58
2022-11-16T05:20:03.391Z,23.98
2022-11-16T05:22:29.788Z,21.48
2022-11-16T05:24:56.225Z,24.50
2022-11-16T05:27:23.971Z,21.95
2022-11-16T05:29:50.543Z,21.65
2022-11-16T05:32:18.137Z,25.35
2022-11-16T05:34:44.671Z,31.98
2022-11-16T05:37:11.097Z,24.08
2022-11-16T05:39:38.002Z,27.45
2022-11-16T05:42:05.499Z,31.00
2022-11-16T05:44:31.911Z,21.23
2022-11-16T05:46:58.351Z,25.02
2022-11-16T05:49:25.087Z,25.83
2022-11-16T05:51:51.770Z,23.58
2022-11-16T05:54:20.239Z,24.50
2022-11-16T05:56:47.943Z,24.42
2022-11-16T05:59:19.190Z,25.35
2022-11-16T06:01:46.538Z,25.33
2022-11-16T06:04:13.791Z,27.02
2022-11-16T06:06:40.680Z,25.25
2022-11-16T06:09:09.991Z,25.42
2022-11-16T06:11:38.083Z,29.80
2022-11-16T06:14:04.991Z,24.83
2022-11-16T06:16:31.436Z,31.83
2022-11-16T06:18:59.026Z,39.40
2022-11-16T06:21:25.502Z,30.13
2022-11-16T06:23:51.924Z,36.92
2022-11-16T06:26:18.386Z,38.72
2022-11-16T06:28:44.917Z,38.58
2022-11-16T06:31:11.359Z,37.70
2022-11-16T06:33:37.840Z,36.70
2022-11-16T06:36:04.540Z,40.90
2022-11-16T06:38:30.969Z,31.00
2022-11-16T06:40:58.494Z,31.45
2022-11-16T06:43:25.585Z,31.38
2022-11-16T06:45:57.976Z,30.27
2022-11-16T06:48:24.892Z,31.75
2022-11-16T06:50:52.141Z,31.17
2022-11-16T06:53:19.121Z,30.10
2022-11-16T06:55:45.712Z,33.08
2022-11-16T06:58:12.280Z,35.50
2022-11-16T07:00:38.754Z,30.45
2022-11-16T07:03:05.533Z,35.03
2022-11-16T07:05:33.078Z,38.00
2022-11-16T07:07:59.491Z,38.85
2022-11-16T07:10:26.263Z,39.88
2022-11-16T07:12:52.731Z,45.15
2022-11-16T07:15:19.890Z,34.53
2022-11-16T07:17:46.323Z,33.50
2022-11-16T07:20:13.070Z,29.05
2022-11-16T07:22:39.456Z,27.77
2022-11-16T07:25:06.444Z,33.72
2022-11-16T07:27:32.811Z,30.60
2022-11-16T07:30:00.596Z,32.60
2022-11-16T07:32:28.846Z,33.20
2022-11-16T07:34:58.025Z,25.33
2022-11-16T07:37:25.678Z,31.10
2022-11-16T07:39:52.066Z,33.45
2022-11-16T07:42:18.544Z,33.00
2022-11-16T07:44:44.941Z,36.38
2022-11-16T07:47:11.397Z,36.42
2022-11-16T07:49:37.876Z,35.42
2022-11-16T07:52:04.292Z,33.63
2022-11-16T07:54:30.679Z,48.88
2022-11-16T07:56:57.122Z,32.55
2022-11-16T07:59:23.555Z,37.13
2022-11-16T08:01:50.040Z,36.63
2022-11-16T08:04:17.451Z,24.02
2022-11-16T08:06:44.669Z,30.52
2022-11-16T08:09:11.292Z,27.08
2022-11-16T08:11:38.044Z,27.85
2022-11-16T08:14:04.540Z,23.85
2022-11-16T08:16:33.489Z,22.70
2022-11-16T08:19:01.100Z,30.10
2022-11-16T08:21:27.549Z,30.08
2022-11-16T08:23:58.394Z,27.63
2022-11-16T08:26:25.805Z,28.33
2022-11-16T08:28:53.644Z,28.30
2022-11-16T08:31:22.552Z,29.17
2022-11-16T08:33:49.010Z,27.65
2022-11-16T08:36:18.576Z,24.25
2022-11-16T08:38:48.778Z,16.80
2022-11-16T08:41:15.885Z,23.73
2022-11-16T08:43:42.559Z,20.77
2022-11-16T08:46:10.040Z,35.45
2022-11-16T08:48:37.252Z,33.90
2022-11-16T08:51:21.462Z,18.25
2022-11-16T08:53:49.666Z,21.70
2022-11-16T08:56:17.868Z,19.08
2022-11-16T08:58:46.674Z,28.02
2022-11-16T09:01:18.290Z,30.13
2022-11-16T09:03:45.555Z,20.80
2022-11-16T09:06:12.849Z,20.25
2022-11-16T09:08:40.892Z,28.60
2022-11-16T09:11:08.776Z,20.58
2022-11-16T09:13:35.208Z,20.45
2022-11-16T09:16:02.161Z,27.20
2022-11-16T09:18:29.336Z,15.55
2022-11-16T09:20:55.788Z,17.60
2022-11-16T09:23:25.614Z,21.77
2022-11-16T09:25:52.430Z,20.20
2022-11-16T09:28:18.911Z,13.32
2022-11-16T09:30:46.619Z,12.85
2022-11-16T09:33:13.314Z,18.48
2022-11-16T09:35:40.042Z,13.60
2022-11-16T09:38:06.683Z,14.98
2022-11-16T09:40:36.739Z,11.93
2022-11-16T09:43:15.214Z,24.40
2022-11-16T09:45:48.533Z,14.20
2022-11-16T09:48:16.091Z,13.57
2022-11-16T09:50:53.511Z,14.60
2022-11-16T09:53:36.311Z,18.92
2022-11-16T09:56:22.617Z,11.68
2022-11-16T09:58:58.201Z,18.35
2022-11-16T10:01:42.999Z,16.92
2022-11-16T10:04:17.748Z,15.02
2022-11-16T10:06:53.486Z,9.70
2022-11-16T10:09:20.067Z,15.18
2022-11-16T10:12:16.530Z,15.18
2022-11-16T10:15:07.669Z,15.68
2022-11-16T10:20:29.177Z,7.88
2022-11-16T10:23:10.060Z,12.77
2022-11-16T10:25:42.919Z,13.65
2022-11-16T10:28:24.550Z,14.68
2022-11-16T10:31:10.163Z,8.65
2022-11-16T10:33:37.278Z,10.70
2022-11-16T10:36:10.730Z,9.77
2022-11-16T10:43:59.273Z,9.63
2022-11-16T10:46:33.709Z,17.67
2022-11-16T10:49:15.824Z,10.65
2022-11-16T10:51:42.832Z,10.23
2022-11-16T10:54:13.697Z,10.13
2022-11-16T10:56:46.649Z,13.93
2022-11-16T10:59:15.032Z,16.17
2022-11-16T11:01:43.401Z,14.57
2022-11-16T11:04:24.274Z,22.20
2022-11-16T11:07:01.612Z,12.52
2022-11-16T11:09:33.324Z,11.82
2022-11-16T11:12:39.077Z,23.17
2022-11-16T11:15:24.277Z,11.73
2022-11-16T11:18:30.518Z,6.90
2022-11-16T11:21:21.742Z,10.88
2022-11-16T11:23:51.463Z,7.38
2022-11-16T11:26:37.440Z,9.80
2022-11-16T11:29:28.025Z,15.48
2022-11-16T11:31:58.172Z,15.80
2022-11-16T11:34:27.229Z,9.73
2022-11-16T11:37:04.008Z,7.20
2022-11-16T11:39:37.181Z,9.75
2022-11-16T11:42:20.214Z,14.48
2022-11-16T11:44:52.580Z,6.80
2022-11-16T11:50:47.109Z,9.25
2022-11-16T11:53:44.337Z,10.40
2022-11-16T11:56:11.658Z,13.95
2022-11-16T11:58:39.746Z,8.98
2022-11-16T12:01:42.819Z,10.07
2022-11-16T12:04:43.336Z,8.05
2022-11-16T12:07:28.020Z,10.52
2022-11-16T12:09:59.310Z,10.95
2022-11-16T12:12:49.350Z,9.65
2022-11-16T12:15:47.669Z,8.95
2022-11-16T12:18:35.625Z,11.50
2022-11-16T12:21:15.332Z,14.50
2022-11-16T12:24:18.778Z,12.82
2022-11-16T12:27:16.212Z,7.72
2022-11-16T12:30:08.849Z,13.95
2022-11-16T12:32:57.343Z,8.32
2022-11-16T12:35:53.039Z,10.20
2022-11-16T12:38:34.366Z,10.48
2022-11-16T12:41:28.679Z,14.82
2022-11-16T12:44:03.384Z,9.98
2022-11-16T12:46:57.280Z,13.30
2022-11-16T12:49:57.209Z,15.68
2022-11-16T12:52:43.302Z,10.27
2022-11-16T12:55:26.319Z,8.35
2022-11-16T12:58:02.583Z,8.77
2022-11-16T13:00:33.310Z,12.63
2022-11-16T13:03:16.399Z,16.10
2022-11-16T13:05:42.718Z,12.55
2022-11-16T13:08:32.754Z,10.18
2022-11-16T13:11:24.021Z,7.45
2022-11-16T13:13:55.350Z,11.05
2022-11-16T13:16:22.950Z,10.88
2022-11-16T13:18:49.806Z,11.82
2022-11-16T13:21:35.606Z,14.32
2022-11-16T13:24:25.071Z,9.07
2022-11-16T13:27:01.519Z,12.38
2022-11-16T13:29:37.667Z,12.25
2022-11-16T13:32:26.124Z,8.75
2022-11-16T13:34:53.044Z,12.45
2022-11-16T13:37:37.993Z,9.85
2022-11-16T13:40:04.526Z,10.57
2022-11-16T13:42:33.373Z,9.80
2022-11-16T13:45:16.062Z,7.82
2022-11-16T13:47:49.814Z,7.38
2022-11-16T13:50:22.936Z,10.20
2022-11-16T13:54:10.917Z,10.50
2022-11-16T13:55:44.233Z,11.95
2022-11-16T13:58:18.855Z,15.25
2022-11-16T14:00:55.902Z,6.57
2022-11-16T14:03:22.222Z,7.38
2022-11-16T14:05:50.776Z,8.60
2022-11-16T14:08:20.293Z,10.95
2022-11-16T14:10:52.318Z,8.10
2022-11-16T14:13:39.979Z,9.32
2022-11-16T14:16:21.655Z,7.38
2022-11-16T14:18:51.859Z,10.45
2022-11-16T14:21:33.575Z,14.20
2022-11-16T14:24:18.897Z,9.50
2022-11-16T14:27:10.534Z,11.27
2022-11-16T14:29:58.935Z,10.43
2022-11-16T14:32:31.408Z,8.68
2022-11-16T14:34:59.128Z,11.57
2022-11-16T14:37:25.526Z,11.13
2022-11-16T14:39:59.042Z,10.55
2022-11-16T14:42:34.529Z,7.00
2022-11-16T14:45:16.583Z,7.80
2022-11-16T14:47:43.450Z,7.40
2022-11-16T14:50:22.356Z,9.07
2022-11-16T14:52:51.254Z,11.63
2022-11-16T14:55:24.349Z,8.75
2022-11-16T14:58:13.769Z,6.90
2022-11-16T15:00:40.240Z,7.68
2022-11-16T15:03:10.484Z,10.50
2022-11-16T15:05:37.628Z,6.63
2022-11-16T15:08:14.648Z,10.77
2022-11-16T15:10:48.085Z,15.45
2022-11-16T15:13:22.855Z,6.03
2022-11-16T15:15:50.307Z,10.82
2022-11-16T15:18:18.812Z,5.43
2022-11-16T15:20:50.700Z,5.53
2022-11-16T15:23:18.077Z,10.98
2022-11-16T15:26:04.563Z,8.32
2022-11-16T15:28:33.319Z,5.25
2022-11-16T15:31:01.843Z,7.30
2022-11-16T15:33:31.015Z,7.65
2022-11-16T15:35:58.060Z,5.45
2022-11-16T15:38:29.931Z,9.80
2022-11-16T15:40:58.794Z,8.85
2022-11-16T15:43:29.763Z,8.65
2022-11-16T15:48:23.882Z,9.48
2022-11-16T15:51:08.472Z,6.10
2022-11-16T15:53:45.923Z,12.63
2022-11-16T15:56:16.434Z,9.45
2022-11-16T15:58:43.240Z,7.90
2022-11-16T16:01:13.787Z,10.07
2022-11-16T16:03:49.771Z,11.68
2022-11-16T16:06:46.723Z,12.82
2022-11-16T16:09:22.427Z,12.38
2022-11-16T16:11:48.852Z,11.70
2022-11-16T16:14:29.482Z,7.80
2022-11-16T16:16:58.333Z,7.35
2022-11-16T16:19:31.757Z,9.43
2022-11-16T16:21:59.446Z,9.27
2022-11-16T16:24:35.074Z,10.00
2022-11-16T16:27:01.490Z,12.68
2022-11-16T16:29:28.459Z,11.10
2022-11-16T16:31:55.810Z,13.45
2022-11-16T16:34:22.213Z,10.07
2022-11-16T16:36:48.591Z,15.95
2022-11-16T16:39:14.974Z,20.85
2022-11-16T16:41:41.470Z,22.30
2022-11-16T16:44:14.160Z,17.58
2022-11-16T16:46:40.623Z,16.38
2022-11-16T16:49:07.970Z,18.83
2022-11-16T16:51:34.369Z,12.88
2022-11-16T16:54:00.782Z,18.25
2022-11-16T16:56:27.221Z,11.48
2022-11-16T16:58:54.062Z,12.77
2022-11-16T17:01:21.206Z,14.23
2022-11-16T17:03:47.920Z,12.38
2022-11-16T17:06:14.424Z,13.38
2022-11-16T17:08:40.801Z,19.13
2022-11-16T17:11:07.243Z,18.52
2022-11-16T17:13:34.002Z,12.50
2022-11-16T17:16:04.436Z,15.60
2022-11-16T17:18:30.799Z,17.47
2022-11-16T17:21:06.305Z,18.88
2022-11-16T17:23:33.180Z,12.35
2022-11-16T17:26:03.973Z,13.55
2022-11-16T17:28:30.462Z,19.00
2022-11-16T17:31:11.419Z,11.52
2022-11-16T17:33:40.347Z,16.65
2022-11-16T17:36:08.276Z,16.70
2022-11-16T17:38:35.062Z,12.88
2022-11-16T17:41:05.935Z,18.20
2022-11-16T17:43:33.144Z,22.70
2022-11-16T17:46:10.805Z,18.67
2022-11-16T17:48:38.185Z,16.52
2022-11-16T17:51:05.214Z,13.68
2022-11-16T17:53:34.084Z,25.75
2022-11-16T17:56:01.556Z,25.98
2022-11-16T17:58:28.816Z,27.30
2022-11-16T18:00:55.235Z,33.92
2022-11-16T18:03:23.949Z,85.70
2022-11-16T18:05:51.658Z,74.75
2022-11-16T18:08:19.242Z,80.55
2022-11-16T18:10:45.641Z,48.17
2022-11-16T18:13:12.008Z,46.88
2022-11-16T18:15:42.413Z,53.47
2022-11-16T18:18:09.036Z,38.08
2022-11-16T18:20:36.871Z,28.50
2022-11-16T18:23:04.322Z,22.25
2022-11-16T18:25:30.698Z,27.13
2022-11-16T18:27:57.382Z,20.88
2022-11-16T18:30:25.185Z,21.05
2022-11-16T18:32:51.576Z,15.38
2022-11-16T18:35:17.967Z,17.33
2022-11-16T18:37:44.618Z,17.23
2022-11-16T18:40:12.047Z,17.67
2022-11-16T18:42:39.177Z,22.67
2022-11-16T18:45:06.160Z,18.40
2022-11-16T18:47:32.637Z,18.00
2022-11-16T18:49:59.077Z,22.67
2022-11-16T18:52:26.204Z,29.80
2022-11-16T18:54:52.554Z,20.17
2022-11-16T18:57:18.963Z,24.52
2022-11-16T18:59:45.474Z,22.52
2022-11-16T19:02:12.402Z,28.95
2022-11-16T19:04:40.183Z,26.02
2022-11-16T19:07:07.753Z,24.75
2022-11-16T19:09:34.244Z,21.67
2022-11-16T19:12:00.617Z,21.05
2022-11-16T19:14:27.030Z,16.25
2022-11-16T19:16:57.122Z,21.13
2022-11-16T19:19:24.212Z,15.20
2022-11-16T19:21:51.822Z,18.42
2022-11-16T19:24:18.210Z,15.57
2022-11-16T19:26:44.690Z,17.70
2022-11-16T19:29:11.085Z,35.58
2022-11-16T19:31:37.503Z,16.27
2022-11-16T19:34:06.432Z,12.38
2022-11-16T19:36:34.673Z,21.90
2022-11-16T19:39:01.266Z,18.98
2022-11-16T19:41:28.273Z,16.35
2022-11-16T19:43:59.705Z,16.63
2022-11-16T19:46:27.931Z,17.23
2022-11-16T19:48:55.058Z,21.17
2022-11-16T19:51:32.516Z,15.45
2022-11-16T19:54:00.111Z,14.43
2022-11-16T19:56:26.771Z,18.60
2022-11-16T19:58:53.349Z,16.77
2022-11-16T20:01:28.631Z,20.20
2022-11-16T20:03:57.054Z,24.23
2022-11-16T20:06:30.979Z,19.70
2022-11-16T20:09:00.716Z,23.40
2022-11-16T20:11:29.096Z,21.55
2022-11-16T20:13:56.552Z,19.17
2022-11-16T20:16:25.179Z,13.77
2022-11-16T20:18:52.364Z,16.52
2022-11-16T20:21:22.625Z,20.27
2022-11-16T20:23:50.402Z,14.85
2022-11-16T20:26:17.062Z,14.82
2022-11-16T20:28:44.112Z,16.23
2022-11-16T20:31:15.762Z,16.05
2022-11-16T20:33:43.095Z,19.83
2022-11-16T20:36:11.067Z,12.82
2022-11-16T20:38:38.998Z,16.48
2022-11-16T20:41:16.131Z,15.02
2022-11-16T20:43:43.818Z,16.95
2022-11-16T20:46:12.573Z,16.48
2022-11-16T20:48:40.518Z,20.85
2022-11-16T20:51:08.659Z,16.05
2022-11-16T20:53:35.617Z,16.63
2022-11-16T20:56:03.496Z,13.70
2022-11-16T20:58:31.186Z,12.82
2022-11-16T21:01:08.604Z,22.52
2022-11-16T21:03:35.497Z,13.30
2022-11-16T21:06:02.288Z,17.38
2022-11-16T21:08:31.915Z,14.70
2022-11-16T21:10:58.928Z,12.02
2022-11-16T21:13:43.919Z,10.90
2022-11-16T21:16:12.200Z,15.27
2022-11-16T21:18:39.738Z,20.92
2022-11-16T21:21:08.002Z,22.60
2022-11-16T21:23:36.352Z,14.52
2022-11-16T21:26:13.795Z,13.60
2022-11-16T21:28:40.863Z,13.52
2022-11-16T21:31:10.099Z,9.57
2022-11-16T21:33:37.198Z,10.43
2022-11-16T21:36:15.062Z,16.55
2022-11-16T21:38:41.919Z,14.40
2022-11-16T21:41:10.143Z,17.90
2022-11-16T21:43:40.633Z,16.40
2022-11-16T21:46:13.004Z,15.13
2022-11-16T21:48:40.045Z,18.65
2022-11-16T21:51:11.525Z,12.27
2022-11-16T21:53:38.515Z,13.48
2022-11-16T21:56:08.741Z,12.60
2022-11-16T21:58:35.207Z,15.80
2022-11-16T22:01:02.265Z,10.98
2022-11-16T22:03:30.266Z,11.63
2022-11-16T22:06:19.952Z,10.85
2022-11-16T22:08:48.084Z,13.35
2022-11-16T22:11:15.523Z,16.42
2022-11-16T22:13:42.184Z,11.35
2022-11-16T22:16:11.474Z,9.32
2022-11-16T22:18:38.154Z,5.57
2022-11-16T22:21:05.242Z,10.52
2022-11-16T22:23:31.959Z,24.42
2022-11-16T22:26:03.664Z,12.48
2022-11-16T22:28:30.540Z,14.57
2022-11-16T22:31:01.743Z,10.27
2022-11-16T22:33:29.589Z,10.52
2022-11-16T22:35:56.346Z,15.75
2022-11-16T22:38:22.885Z,14.50
2022-11-16T22:40:54.121Z,9.27
2022-11-16T22:43:21.856Z,7.40
2022-11-16T22:45:48.415Z,7.45
2022-11-16T22:48:16.420Z,12.52
2022-11-16T22:50:43.572Z,13.10
2022-11-16T22:53:10.478Z,14.48
2022-11-16T22:55:38.154Z,12.20
2022-11-16T22:58:05.540Z,10.95
2022-11-16T23:00:37.478Z,11.00
2022-11-16T23:03:07.534Z,9.70
2022-11-16T23:05:34.003Z,10.93
2022-11-16T23:08:00.431Z,15.30
2022-11-16T23:10:27.134Z,14.18
2022-11-16T23:13:12.146Z,13.43
2022-11-16T23:15:50.698Z,11.02
2022-11-16T23:18:19.118Z,11.35
2022-11-16T23:21:04.161Z,8.38
2022-11-16T23:24:02.634Z,8.43
2022-11-16T23:26:47.747Z,10.32
2022-11-16T23:29:14.166Z,11.60
2022-11-16T23:31:40.554Z,12.23
2022-11-16T23:34:06.982Z,14.15
2022-11-16T23:36:33.419Z,15.68
2022-11-16T23:38:59.839Z,13.98
2022-11-16T23:41:44.552Z,11.43
2022-11-16T23:44:11.220Z,12.82
2022-11-16T23:46:37.639Z,11.05
2022-11-16T23:49:04.267Z,12.90
2022-11-16T23:51:30.701Z,15.48
2022-11-16T23:53:57.344Z,13.05
2022-11-16T23:56:24.014Z,17.92
2022-11-16T23:58:50.619Z,16.40
